Airfield :
LOGIN :

Register | Disclaimer

   EN    FR    IT 

 










Legend :    VFR   Marginal VFR   IFR   Intensive IFR   Very Intensive IFR
Visi :
Ceiling :
>= 8 km
>= 3000ft
5 to 8 km
1000 to 3000 ft
1500m to 5 km
500 to 1000 ft
800 to 1500m
200 to 500 ft
< 800m
< 200 ft
Symbols :   Thunderstorms  Fog  Heavy snow  Heavy precipitations  Wind > 20 kt
SIGMETs :     Misc.  Thunderstorms  Icing  Turbulence  Mountain Waves  Volcanic Ashes






- Airport Elevation : 779 ft
- IATA code : CMF


LFLB - Chambery / Aix-Les-Bains

CURRENT METAR :
  • 300230Z AUTO VRB02KT 6000 FEW018 OVC032 06/05 Q1018 NOSIG

EXPIRED METARs :
  • 300200Z AUTO 16003KT 7000 OVC032 06/06 Q1018
  • 300130Z AUTO 18003KT 6000 OVC032 06/06 Q1018
  • 300100Z AUTO VRB03KT 6000 BKN029 OVC035 06/06 Q1018
  • 300030Z AUTO VRB02KT 6000 FEW020 BKN028 OVC034 06/06 Q1018
  • 300000Z AUTO 13002KT 6000 OVC025 06/06 Q1018

TAF TAF LFLB
Valid from the 30 at 03:00 until the 01 at 03:00 UTC


300200Z 3003/0103 VRB03KT 9999 OVC030
TEMPO 3005/3013 BKN012
PROB30
TEMPO 3006/3012 4000 BR
BECMG 3018/3021 36010KT



MET'MAP, your aeronautical weather chart ! - Copyright ORBIFLY December 2007 - Disclaimer

ORBIFLY MET'MAP TEAM :

Programming & Development : Alexandra Zaïnal
Original concept : Baudouin d'Aumeries
Technical & hardware support : Manuel Goepfert
Assistance : Marc-Olivier Méhu




SOURCES & CREDITS :

   NOAA